sensor_id;sensor_type;location;lat;lon;timestamp;pressure;altitude;pressure_sealevel;temperature;humidity
12913;BME280;6524;51.368;11.984;2023-04-09T04:01:21;101324.66;;;1.47;64.46
12913;BME280;6524;51.368;11.984;2023-04-09T04:06:21;101325.50;;;1.50;63.85
12913;BME280;6524;51.368;11.984;2023-04-09T04:11:22;101328.88;;;1.56;64.29
12913;BME280;6524;51.368;11.984;2023-04-09T04:16:22;101332.16;;;1.71;62.71
12913;BME280;6524;51.368;11.984;2023-04-09T04:21:23;101348.19;;;1.39;61.68
12913;BME280;6524;51.368;11.984;2023-04-09T04:26:23;101349.16;;;1.29;61.67
12913;BME280;6524;51.368;11.984;2023-04-09T04:31:23;101352.81;;;1.16;62.20
12913;BME280;6524;51.368;11.984;2023-04-09T04:36:23;101361.63;;;1.01;63.02
12913;BME280;6524;51.368;11.984;2023-04-09T04:41:25;101364.59;;;0.61;64.66
12913;BME280;6524;51.368;11.984;2023-04-09T04:46:25;101361.72;;;0.93;63.97
12913;BME280;6524;51.368;11.984;2023-04-09T04:51:26;101364.06;;;1.15;62.02
12913;BME280;6524;51.368;11.984;2023-04-09T04:56:26;101366.03;;;0.93;61.93
12913;BME280;6524;51.368;11.984;2023-04-09T05:01:27;101364.06;;;1.15;61.54
12913;BME280;6524;51.368;11.984;2023-04-09T05:06:27;101367.66;;;1.04;61.63
12913;BME280;6524;51.368;11.984;2023-04-09T05:11:28;101376.25;;;1.13;61.17
12913;BME280;6524;51.368;11.984;2023-04-09T05:16:29;101381.50;;;1.07;61.25
12913;BME280;6524;51.368;11.984;2023-04-09T05:21:29;101386.53;;;1.25;61.80
12913;BME280;6524;51.368;11.984;2023-04-09T05:26:31;101385.50;;;1.37;62.48
12913;BME280;6524;51.368;11.984;2023-04-09T05:31:31;101379.00;;;1.73;62.46
12913;BME280;6524;51.368;11.984;2023-04-09T05:36:31;101372.22;;;2.26;60.43
12913;BME280;6524;51.368;11.984;2023-04-09T05:41:31;101377.59;;;2.12;60.15
12913;BME280;6524;51.368;11.984;2023-04-09T05:46:32;101378.19;;;2.34;60.37
12913;BME280;6524;51.368;11.984;2023-04-09T05:51:33;101372.78;;;2.47;60.68
12913;BME280;6524;51.368;11.984;2023-04-09T05:56:33;101366.16;;;2.21;62.66
12913;BME280;6524;51.368;11.984;2023-04-09T06:01:34;101370.94;;;2.52;62.29
12913;BME280;6524;51.368;11.984;2023-04-09T06:06:38;101371.97;;;2.93;61.16
12913;BME280;6524;51.368;11.984;2023-04-09T06:11:38;101372.38;;;3.61;59.53
12913;BME280;6524;51.368;11.984;2023-04-09T06:16:39;101371.59;;;3.57;59.73
12913;BME280;6524;51.368;11.984;2023-04-09T06:21:39;101371.56;;;4.01;59.09
12913;BME280;6524;51.368;11.984;2023-04-09T06:26:39;101373.38;;;4.70;57.99
12913;BME280;6524;51.368;11.984;2023-04-09T06:31:43;101379.59;;;5.33;55.93
12913;BME280;6524;51.368;11.984;2023-04-09T06:36:44;101393.53;;;5.34;54.89
12913;BME280;6524;51.368;11.984;2023-04-09T06:41:44;101399.56;;;5.98;53.65
12913;BME280;6524;51.368;11.984;2023-04-09T06:46:45;101386.84;;;5.84;54.14
12913;BME280;6524;51.368;11.984;2023-04-09T06:51:49;101394.84;;;5.80;54.17
12913;BME280;6524;51.368;11.984;2023-04-09T06:56:52;101411.47;;;6.08;53.63
12913;BME280;6524;51.368;11.984;2023-04-09T07:01:52;101406.22;;;6.65;52.79
12913;BME280;6524;51.368;11.984;2023-04-09T07:06:53;101399.44;;;7.11;51.87
12913;BME280;6524;51.368;11.984;2023-04-09T07:11:54;101399.94;;;7.45;50.67
12913;BME280;6524;51.368;11.984;2023-04-09T07:16:54;101402.34;;;7.75;50.26
12913;BME280;6524;51.368;11.984;2023-04-09T07:21:55;101405.81;;;8.87;47.68
12913;BME280;6524;51.368;11.984;2023-04-09T07:26:55;101408.44;;;9.67;44.77
12913;BME280;6524;51.368;11.984;2023-04-09T07:31:56;101408.97;;;12.49;38.66
12913;BME280;6524;51.368;11.984;2023-04-09T07:36:56;101424.06;;;14.09;35.77
12913;BME280;6524;51.368;11.984;2023-04-09T07:41:56;101423.56;;;14.58;34.57
12913;BME280;6524;51.368;11.984;2023-04-09T07:46:57;101428.63;;;16.03;32.35
12913;BME280;6524;51.368;11.984;2023-04-09T07:51:58;101437.53;;;15.78;32.80
12913;BME280;6524;51.368;11.984;2023-04-09T07:56:59;101438.94;;;17.04;31.15
12913;BME280;6524;51.368;11.984;2023-04-09T08:02:02;101433.63;;;18.39;29.04
12913;BME280;6524;51.368;11.984;2023-04-09T08:07:03;101440.34;;;18.22;28.50
12913;BME280;6524;51.368;11.984;2023-04-09T08:12:03;101440.41;;;18.75;28.25
12913;BME280;6524;51.368;11.984;2023-04-09T08:17:03;101448.28;;;20.60;26.64
12913;BME280;6524;51.368;11.984;2023-04-09T08:22:04;101437.06;;;20.26;26.34
12913;BME280;6524;51.368;11.984;2023-04-09T08:27:04;101447.94;;;22.06;25.07
12913;BME280;6524;51.368;11.984;2023-04-09T08:32:05;101445.50;;;19.62;27.65
12913;BME280;6524;51.368;11.984;2023-04-09T08:37:05;101444.63;;;20.71;26.00
12913;BME280;6524;51.368;11.984;2023-04-09T08:42:07;101437.81;;;20.38;24.97
12913;BME280;6524;51.368;11.984;2023-04-09T08:47:08;101444.38;;;21.41;25.00
12913;BME280;6524;51.368;11.984;2023-04-09T08:52:11;101441.53;;;22.35;23.57
12913;BME280;6524;51.368;11.984;2023-04-09T08:57:11;101445.00;;;22.17;24.10
12913;BME280;6524;51.368;11.984;2023-04-09T09:02:15;101434.28;;;22.71;24.11
12913;BME280;6524;51.368;11.984;2023-04-09T09:07:16;101434.69;;;22.58;23.70
12913;BME280;6524;51.368;11.984;2023-04-09T09:12:37;101435.91;;;23.00;23.20
12913;BME280;6524;51.368;11.984;2023-04-09T09:17:56;101446.38;;;22.31;23.57
12913;BME280;6524;51.368;11.984;2023-04-09T09:22:57;101432.63;;;21.42;23.94
12913;BME280;6524;51.368;11.984;2023-04-09T09:28:09;101426.75;;;22.39;23.56
12913;BME280;6524;51.368;11.984;2023-04-09T09:33:11;101428.25;;;21.41;23.82
12913;BME280;6524;51.368;11.984;2023-04-09T09:38:11;101428.75;;;21.64;23.92
12913;BME280;6524;51.368;11.984;2023-04-09T09:43:14;101417.38;;;21.33;24.48
12913;BME280;6524;51.368;11.984;2023-04-09T09:48:15;101421.53;;;21.64;24.29
12913;BME280;6524;51.368;11.984;2023-04-09T09:53:16;101418.63;;;20.81;24.42
12913;BME280;6524;51.368;11.984;2023-04-09T09:58:26;101410.63;;;21.28;24.25
12913;BME280;6524;51.368;11.984;2023-04-09T10:03:28;101418.34;;;21.79;23.45
12913;BME280;6524;51.368;11.984;2023-04-09T10:08:32;101416.50;;;21.42;24.83
12913;BME280;6524;51.368;11.984;2023-04-09T10:13:35;101415.47;;;21.15;25.02
12913;BME280;6524;51.368;11.984;2023-04-09T10:18:36;101408.63;;;19.85;26.05
12913;BME280;6524;51.368;11.984;2023-04-09T10:23:44;101403.47;;;21.00;25.05
12913;BME280;6524;51.368;11.984;2023-04-09T10:29:02;101399.44;;;20.57;25.66
12913;BME280;6524;51.368;11.984;2023-04-09T10:34:05;101387.81;;;20.18;25.55
12913;BME280;6524;51.368;11.984;2023-04-09T10:39:13;101386.97;;;20.75;25.61
12913;BME280;6524;51.368;11.984;2023-04-09T10:44:25;101388.66;;;20.37;25.77
12913;BME280;6524;51.368;11.984;2023-04-09T10:49:26;101379.59;;;20.00;26.37
12913;BME280;6524;51.368;11.984;2023-04-09T10:59:34;101363.38;;;18.99;27.38
12913;BME280;6524;51.368;11.984;2023-04-09T11:09:55;101354.84;;;19.77;26.79
12913;BME280;6524;51.368;11.984;2023-04-09T11:14:55;101354.19;;;20.04;25.96
12913;BME280;6524;51.368;11.984;2023-04-09T11:19:55;101354.47;;;20.78;25.69
12913;BME280;6524;51.368;11.984;2023-04-09T11:24:56;101359.13;;;20.76;26.52
12913;BME280;6524;51.368;11.984;2023-04-09T11:29:56;101343.25;;;19.76;27.09
12913;BME280;6524;51.368;11.984;2023-04-09T11:34:57;101343.84;;;19.09;27.42
12913;BME280;6524;51.368;11.984;2023-04-09T11:39:57;101342.97;;;19.29;28.11
12913;BME280;6524;51.368;11.984;2023-04-09T11:44:59;101331.88;;;19.13;28.30
12913;BME280;6524;51.368;11.984;2023-04-09T11:50:42;101340.34;;;19.79;27.28
12913;BME280;6524;51.368;11.984;2023-04-09T11:55:51;101342.91;;;20.10;27.06
12913;BME280;6524;51.368;11.984;2023-04-09T12:00:53;101335.16;;;19.47;26.05
12913;BME280;6524;51.368;11.984;2023-04-09T12:05:55;101329.44;;;19.21;27.27
12913;BME280;6524;51.368;11.984;2023-04-09T12:10:55;101328.44;;;19.62;26.63
12913;BME280;6524;51.368;11.984;2023-04-09T12:15:59;101325.00;;;19.51;26.17
12913;BME280;6524;51.368;11.984;2023-04-09T12:21:52;101326.81;;;20.00;25.78
12913;BME280;6524;51.368;11.984;2023-04-09T12:26:54;101330.88;;;20.72;25.19
12913;BME280;6524;51.368;11.984;2023-04-09T12:31:56;101329.03;;;21.02;25.17
12913;BME280;6524;51.368;11.984;2023-04-09T12:36:56;101333.66;;;21.37;23.81
12913;BME280;6524;51.368;11.984;2023-04-09T12:41:57;101326.13;;;21.13;24.41
12913;BME280;6524;51.368;11.984;2023-04-09T12:46:57;101327.41;;;21.46;24.52
12913;BME280;6524;51.368;11.984;2023-04-09T12:51:58;101330.00;;;20.91;24.56
12913;BME280;6524;51.368;11.984;2023-04-09T12:56:58;101320.88;;;20.65;25.48
12913;BME280;6524;51.368;11.984;2023-04-09T13:01:59;101313.25;;;19.42;25.95
12913;BME280;6524;51.368;11.984;2023-04-09T13:06:59;101305.22;;;19.42;26.38
12913;BME280;6524;51.368;11.984;2023-04-09T13:12:00;101295.66;;;18.57;26.99
12913;BME280;6524;51.368;11.984;2023-04-09T13:17:01;101296.31;;;18.49;26.93
12913;BME280;6524;51.368;11.984;2023-04-09T13:22:01;101287.69;;;18.67;27.05
12913;BME280;6524;51.368;11.984;2023-04-09T13:27:04;101283.69;;;18.40;26.87
12913;BME280;6524;51.368;11.984;2023-04-09T13:32:05;101285.47;;;18.30;26.39
12913;BME280;6524;51.368;11.984;2023-04-09T13:37:09;101282.97;;;18.38;26.90
12913;BME280;6524;51.368;11.984;2023-04-09T13:42:10;101277.44;;;18.30;26.82
12913;BME280;6524;51.368;11.984;2023-04-09T13:47:11;101274.00;;;18.39;27.32
12913;BME280;6524;51.368;11.984;2023-04-09T13:52:12;101268.81;;;18.47;27.08
12913;BME280;6524;51.368;11.984;2023-04-09T13:57:16;101261.56;;;18.38;27.03
12913;BME280;6524;51.368;11.984;2023-04-09T14:02:34;101249.59;;;18.33;28.34
12913;BME280;6524;51.368;11.984;2023-04-09T14:07:35;101249.50;;;18.23;27.56
12913;BME280;6524;51.368;11.984;2023-04-09T14:12:39;101244.25;;;18.12;27.27
12913;BME280;6524;51.368;11.984;2023-04-09T14:17:41;101246.03;;;17.90;27.37
12913;BME280;6524;51.368;11.984;2023-04-09T14:22:42;101239.25;;;17.86;27.33
12913;BME280;6524;51.368;11.984;2023-04-09T14:27:54;101237.53;;;17.85;26.81
12913;BME280;6524;51.368;11.984;2023-04-09T14:32:57;101227.34;;;17.79;26.28
12913;BME280;6524;51.368;11.984;2023-04-09T14:38:17;101233.66;;;17.78;26.36
12913;BME280;6524;51.368;11.984;2023-04-09T14:43:34;101234.56;;;17.99;26.27
12913;BME280;6524;51.368;11.984;2023-04-09T14:48:34;101223.63;;;17.70;25.88
12913;BME280;6524;51.368;11.984;2023-04-09T14:53:37;101224.22;;;17.74;25.76
12913;BME280;6524;51.368;11.984;2023-04-09T14:58:43;101209.88;;;17.43;25.68
12913;BME280;6524;51.368;11.984;2023-04-09T15:03:57;101215.88;;;17.01;26.88
12913;BME280;6524;51.368;11.984;2023-04-09T15:09:05;101214.59;;;16.38;26.60
12913;BME280;6524;51.368;11.984;2023-04-09T15:14:05;101203.06;;;15.91;27.68
12913;BME280;6524;51.368;11.984;2023-04-09T15:19:06;101198.69;;;15.54;28.83
12913;BME280;6524;51.368;11.984;2023-04-09T15:24:06;101197.84;;;15.17;28.11
12913;BME280;6524;51.368;11.984;2023-04-09T15:29:07;101204.91;;;14.93;28.30
12913;BME280;6524;51.368;11.984;2023-04-09T15:34:07;101199.84;;;14.64;28.94
12913;BME280;6524;51.368;11.984;2023-04-09T15:39:08;101209.94;;;14.59;29.21
12913;BME280;6524;51.368;11.984;2023-04-09T15:44:08;101205.03;;;14.66;30.10
12913;BME280;6524;51.368;11.984;2023-04-09T15:49:09;101209.50;;;14.39;30.97
12913;BME280;6524;51.368;11.984;2023-04-09T15:54:10;101207.91;;;14.37;30.22
12913;BME280;6524;51.368;11.984;2023-04-09T15:59:17;101215.16;;;14.48;30.44
12913;BME280;6524;51.368;11.984;2023-04-09T16:04:18;101207.06;;;14.36;31.06
12913;BME280;6524;51.368;11.984;2023-04-09T16:09:18;101202.84;;;13.94;30.78
12913;BME280;6524;51.368;11.984;2023-04-09T16:14:18;101205.19;;;14.11;31.18
12913;BME280;6524;51.368;11.984;2023-04-09T16:19:19;101208.13;;;14.21;30.61
12913;BME280;6524;51.368;11.984;2023-04-09T16:24:20;101206.72;;;13.76;30.61
12913;BME280;6524;51.368;11.984;2023-04-09T16:29:20;101206.28;;;13.69;31.58
12913;BME280;6524;51.368;11.984;2023-04-09T16:34:21;101206.91;;;13.45;31.75
12913;BME280;6524;51.368;11.984;2023-04-09T16:39:21;101208.38;;;13.64;32.04
12913;BME280;6524;51.368;11.984;2023-04-09T16:44:22;101202.22;;;13.63;32.92
12913;BME280;6524;51.368;11.984;2023-04-09T16:49:23;101202.88;;;13.67;33.81
12913;BME280;6524;51.368;11.984;2023-04-09T16:54:23;101188.72;;;13.54;33.33
12913;BME280;6524;51.368;11.984;2023-04-09T16:59:23;101200.31;;;13.24;34.51
12913;BME280;6524;51.368;11.984;2023-04-09T17:04:25;101195.16;;;13.49;35.19
12913;BME280;6524;51.368;11.984;2023-04-09T17:09:27;101198.16;;;13.58;35.53
12913;BME280;6524;51.368;11.984;2023-04-09T17:14:27;101202.38;;;13.33;35.58
12913;BME280;6524;51.368;11.984;2023-04-09T17:19:28;101193.66;;;12.90;36.39
12913;BME280;6524;51.368;11.984;2023-04-09T17:24:28;101197.44;;;12.86;36.50
12913;BME280;6524;51.368;11.984;2023-04-09T17:29:32;101199.06;;;12.88;36.50
12913;BME280;6524;51.368;11.984;2023-04-09T17:34:33;101199.06;;;12.88;36.60
12913;BME280;6524;51.368;11.984;2023-04-09T17:39:34;101201.72;;;12.60;36.60
12913;BME280;6524;51.368;11.984;2023-04-09T17:44:35;101202.84;;;12.55;36.83
12913;BME280;6524;51.368;11.984;2023-04-09T17:49:36;101195.00;;;12.09;38.08
12913;BME280;6524;51.368;11.984;2023-04-09T17:54:39;101195.47;;;11.86;38.41
12913;BME280;6524;51.368;11.984;2023-04-09T17:59:39;101200.38;;;11.78;37.80
12913;BME280;6524;51.368;11.984;2023-04-09T18:04:40;101195.28;;;11.75;38.90
12913;BME280;6524;51.368;11.984;2023-04-09T18:09:40;101201.41;;;11.59;40.66
12913;BME280;6524;51.368;11.984;2023-04-09T18:14:41;101207.56;;;11.44;40.07
12913;BME280;6524;51.368;11.984;2023-04-09T18:19:42;101205.88;;;11.43;40.17
12913;BME280;6524;51.368;11.984;2023-04-09T18:24:42;101198.19;;;11.23;40.94
12913;BME280;6524;51.368;11.984;2023-04-09T18:29:42;101204.41;;;10.90;42.41
12913;BME280;6524;51.368;11.984;2023-04-09T18:34:43;101207.00;;;10.57;42.39
12913;BME280;6524;51.368;11.984;2023-04-09T18:39:44;101212.22;;;10.23;42.97
12913;BME280;6524;51.368;11.984;2023-04-09T18:44:45;101215.34;;;9.97;44.68
12913;BME280;6524;51.368;11.984;2023-04-09T18:49:46;101223.41;;;10.11;44.16
12913;BME280;6524;51.368;11.984;2023-04-09T18:54:46;101221.41;;;10.16;44.72
12913;BME280;6524;51.368;11.984;2023-04-09T18:59:47;101217.81;;;9.64;45.55
12913;BME280;6524;51.368;11.984;2023-04-09T19:04:48;101222.81;;;10.06;44.87
12913;BME280;6524;51.368;11.984;2023-04-09T19:09:48;101227.47;;;9.84;45.96
12913;BME280;6524;51.368;11.984;2023-04-09T19:14:48;101217.28;;;9.57;46.47
12913;BME280;6524;51.368;11.984;2023-04-09T19:19:49;101210.63;;;9.12;46.97
12913;BME280;6524;51.368;11.984;2023-04-09T19:24:50;101213.59;;;9.23;46.68
12913;BME280;6524;51.368;11.984;2023-04-09T19:29:50;101221.28;;;9.47;45.00
12913;BME280;6524;51.368;11.984;2023-04-09T19:34:52;101224.78;;;9.28;45.64
12913;BME280;6524;51.368;11.984;2023-04-09T19:39:53;101225.06;;;9.22;46.24
12913;BME280;6524;51.368;11.984;2023-04-09T19:44:53;101234.09;;;8.98;46.92
12913;BME280;6524;51.368;11.984;2023-04-09T19:49:54;101233.41;;;8.94;45.93
12913;BME280;6524;51.368;11.984;2023-04-09T19:54:55;101244.63;;;8.79;45.94
12913;BME280;6524;51.368;11.984;2023-04-09T19:59:55;101241.66;;;8.86;45.26
12913;BME280;6524;51.368;11.984;2023-04-09T20:04:56;101245.06;;;8.68;45.71
12913;BME280;6524;51.368;11.984;2023-04-09T20:09:56;101254.94;;;8.22;45.58
12913;BME280;6524;51.368;11.984;2023-04-09T20:14:57;101253.91;;;8.47;46.75
12913;BME280;6524;51.368;11.984;2023-04-09T20:19:58;101258.88;;;8.12;48.12
12913;BME280;6524;51.368;11.984;2023-04-09T20:24:58;101257.56;;;8.02;48.06
12913;BME280;6524;51.368;11.984;2023-04-09T20:29:59;101261.06;;;8.23;48.45
12913;BME280;6524;51.368;11.984;2023-04-09T20:35:00;101262.44;;;8.11;47.55
12913;BME280;6524;51.368;11.984;2023-04-09T20:40:01;101255.34;;;7.91;48.73
12913;BME280;6524;51.368;11.984;2023-04-09T20:45:01;101250.66;;;7.77;48.87
12913;BME280;6524;51.368;11.984;2023-04-09T20:50:02;101240.28;;;7.50;49.28
12913;BME280;6524;51.368;11.984;2023-04-09T20:55:04;101234.84;;;7.10;49.81
12913;BME280;6524;51.368;11.984;2023-04-09T21:00:06;101233.50;;;6.74;50.24
12913;BME280;6524;51.368;11.984;2023-04-09T21:05:07;101234.72;;;6.89;50.70
12913;BME280;6524;51.368;11.984;2023-04-09T21:10:08;101228.78;;;6.84;50.86
12913;BME280;6524;51.368;11.984;2023-04-09T21:15:09;101231.75;;;6.75;50.18
12913;BME280;6524;51.368;11.984;2023-04-09T21:20:10;101223.75;;;6.54;51.10
12913;BME280;6524;51.368;11.984;2023-04-09T21:25:11;101220.91;;;6.61;51.96
12913;BME280;6524;51.368;11.984;2023-04-09T21:30:11;101229.22;;;6.72;51.61
12913;BME280;6524;51.368;11.984;2023-04-09T21:35:12;101220.31;;;6.76;50.99
12913;BME280;6524;51.368;11.984;2023-04-09T21:40:12;101219.78;;;6.41;51.50
12913;BME280;6524;51.368;11.984;2023-04-09T21:45:12;101212.63;;;6.46;51.03
12913;BME280;6524;51.368;11.984;2023-04-09T21:50:13;101222.97;;;6.26;51.98
12913;BME280;6524;51.368;11.984;2023-04-09T21:55:14;101222.19;;;6.22;52.45
12913;BME280;6524;51.368;11.984;2023-04-09T22:00:14;101220.28;;;5.74;51.48
12913;BME280;6524;51.368;11.984;2023-04-09T22:05:15;101226.47;;;5.45;52.69
12913;BME280;6524;51.368;11.984;2023-04-09T22:10:15;101223.69;;;5.50;52.81
12913;BME280;6524;51.368;11.984;2023-04-09T22:15:17;101220.94;;;5.54;52.52
12913;BME280;6524;51.368;11.984;2023-04-09T22:20:18;101220.75;;;5.60;52.50
12913;BME280;6524;51.368;11.984;2023-04-09T22:25:18;101228.25;;;5.43;53.19
12913;BME280;6524;51.368;11.984;2023-04-09T22:30:19;101229.78;;;5.50;52.88
12913;BME280;6524;51.368;11.984;2023-04-09T22:35:23;101237.59;;;5.52;52.96
12913;BME280;6524;51.368;11.984;2023-04-09T22:40:23;101242.50;;;5.62;52.62
12913;BME280;6524;51.368;11.984;2023-04-09T22:45:24;101237.13;;;5.39;52.45
12913;BME280;6524;51.368;11.984;2023-04-09T22:50:26;101236.44;;;5.32;52.87
12913;BME280;6524;51.368;11.984;2023-04-09T22:55:27;101244.66;;;5.18;52.81
12913;BME280;6524;51.368;11.984;2023-04-09T23:00:28;101240.28;;;5.19;52.86
12913;BME280;6524;51.368;11.984;2023-04-09T23:05:28;101235.97;;;5.18;53.09
12913;BME280;6524;51.368;11.984;2023-04-09T23:10:29;101239.44;;;5.18;53.34
12913;BME280;6524;51.368;11.984;2023-04-09T23:15:29;101239.72;;;4.78;55.15
12913;BME280;6524;51.368;11.984;2023-04-09T23:20:29;101228.81;;;4.62;55.62
12913;BME280;6524;51.368;11.984;2023-04-09T23:25:30;101239.78;;;4.75;55.31
12913;BME280;6524;51.368;11.984;2023-04-09T23:30:30;101229.56;;;4.67;56.40
12913;BME280;6524;51.368;11.984;2023-04-09T23:35:31;101240.03;;;4.67;56.57
12913;BME280;6524;51.368;11.984;2023-04-09T23:40:31;101233.16;;;4.63;57.34
12913;BME280;6524;51.368;11.984;2023-04-09T23:45:32;101225.31;;;4.94;55.75
12913;BME280;6524;51.368;11.984;2023-04-09T23:50:32;101221.38;;;4.80;54.81
12913;BME280;6524;51.368;11.984;2023-04-09T23:55:33;101219.59;;;4.80;54.27
